createdAt,value
2019-03-16T00:01:01.006Z,8.19
2019-03-16T00:03:28.043Z,8.22
2019-03-16T00:05:55.076Z,8.20
2019-03-16T00:08:23.431Z,8.21
2019-03-16T00:10:50.716Z,8.19
2019-03-16T00:13:17.996Z,8.18
2019-03-16T00:15:45.289Z,8.16
2019-03-16T00:18:12.578Z,8.13
2019-03-16T00:20:39.869Z,8.14
2019-03-16T00:23:07.313Z,8.15
2019-03-16T00:25:34.697Z,8.14
2019-03-16T00:28:01.729Z,8.13
2019-03-16T00:30:28.774Z,8.14
2019-03-16T00:32:55.800Z,8.14
2019-03-16T00:35:23.100Z,8.13
2019-03-16T00:37:50.374Z,8.14
2019-03-16T00:40:17.415Z,8.14
2019-03-16T00:42:44.692Z,8.13
2019-03-16T00:45:12.064Z,8.15
2019-03-16T00:47:39.312Z,8.12
2019-03-16T00:50:06.616Z,8.12
2019-03-16T00:52:33.890Z,8.12
2019-03-16T00:55:00.937Z,8.10
2019-03-16T00:57:28.209Z,8.09
2019-03-16T00:59:55.518Z,8.09
2019-03-16T01:02:27.365Z,8.07
2019-03-16T01:04:51.544Z,8.07
2019-03-16T01:07:18.573Z,8.05
2019-03-16T01:09:45.617Z,8.04
2019-03-16T01:12:12.906Z,8.04
2019-03-16T01:14:40.190Z,8.04
2019-03-16T01:17:08.426Z,8.03
2019-03-16T01:19:35.472Z,8.02
2019-03-16T01:22:02.747Z,8.02
2019-03-16T01:24:29.798Z,8.02
2019-03-16T01:26:56.816Z,8.02
2019-03-16T01:29:23.877Z,8.03
2019-03-16T01:31:51.286Z,8.03
2019-03-16T01:34:18.318Z,8.03
2019-03-16T01:36:45.364Z,8.02
2019-03-16T01:39:12.649Z,8.01
2019-03-16T01:41:39.939Z,8.02
2019-03-16T01:44:07.326Z,7.99
2019-03-16T01:46:34.378Z,8.01
2019-03-16T01:49:01.750Z,7.98
2019-03-16T01:51:29.081Z,7.98
2019-03-16T01:53:56.436Z,7.97
2019-03-16T01:56:23.828Z,7.99
2019-03-16T01:58:50.863Z,7.97
2019-03-16T02:01:18.197Z,7.96
2019-03-16T02:03:45.226Z,7.96
2019-03-16T02:06:12.599Z,7.96
2019-03-16T02:08:39.956Z,7.97
2019-03-16T02:11:07.004Z,7.98
2019-03-16T02:13:34.107Z,7.99
2019-03-16T02:16:10.886Z,8.00
2019-03-16T02:18:30.320Z,7.98
2019-03-16T02:20:57.366Z,7.96
2019-03-16T02:23:37.499Z,7.97
2019-03-16T02:26:04.855Z,7.97
2019-03-16T02:28:31.886Z,7.96
2019-03-16T02:30:59.258Z,7.96
2019-03-16T02:33:26.617Z,7.95
2019-03-16T02:35:53.985Z,7.95
2019-03-16T02:38:21.268Z,7.94
2019-03-16T02:40:48.319Z,7.95
2019-03-16T02:43:15.835Z,7.93
2019-03-16T02:45:43.205Z,7.93
2019-03-16T02:48:11.578Z,7.93
2019-03-16T02:50:38.865Z,7.94
2019-03-16T02:53:05.896Z,7.95
2019-03-16T02:55:32.944Z,7.93
2019-03-16T02:58:00.240Z,7.92
2019-03-16T03:00:27.624Z,7.93
2019-03-16T03:02:54.658Z,7.93
2019-03-16T03:05:22.044Z,7.92
2019-03-16T03:07:49.346Z,7.90
2019-03-16T03:10:16.391Z,7.89
2019-03-16T03:12:43.429Z,7.90
2019-03-16T03:15:10.853Z,7.89
2019-03-16T03:17:38.232Z,7.89
2019-03-16T03:20:05.546Z,7.88
2019-03-16T03:22:32.897Z,7.92
2019-03-16T03:25:00.371Z,7.90
2019-03-16T03:27:27.713Z,7.90
2019-03-16T03:29:57.222Z,7.88
2019-03-16T03:32:23.506Z,7.89
2019-03-16T03:34:50.534Z,7.90
2019-03-16T03:37:17.585Z,7.87
2019-03-16T03:39:44.615Z,7.88
2019-03-16T03:42:12.900Z,7.86
2019-03-16T03:44:40.179Z,7.87
2019-03-16T03:47:07.495Z,7.87
2019-03-16T03:49:34.527Z,7.87
2019-03-16T03:52:01.580Z,7.88
2019-03-16T03:54:28.864Z,7.86
2019-03-16T03:56:55.912Z,7.85
2019-03-16T03:59:23.195Z,7.88
2019-03-16T04:01:50.505Z,7.86
2019-03-16T04:04:17.788Z,7.86
2019-03-16T04:06:44.826Z,7.84
2019-03-16T04:09:12.114Z,7.85
2019-03-16T04:11:39.156Z,7.84
2019-03-16T04:14:06.435Z,7.83
2019-03-16T04:16:33.486Z,7.83
2019-03-16T04:19:00.790Z,7.83
2019-03-16T04:21:28.095Z,7.82
2019-03-16T04:23:55.127Z,7.84
2019-03-16T04:26:22.543Z,7.83
2019-03-16T04:28:49.827Z,7.81
2019-03-16T04:31:16.877Z,7.84
2019-03-16T04:33:44.228Z,7.83
2019-03-16T04:36:11.502Z,7.83
2019-03-16T04:38:38.554Z,7.81
2019-03-16T04:41:05.834Z,7.82
2019-03-16T04:43:33.145Z,7.82
2019-03-16T04:46:00.181Z,7.82
2019-03-16T04:48:27.225Z,7.82
2019-03-16T04:50:54.266Z,7.83
2019-03-16T04:53:21.684Z,7.83
2019-03-16T04:55:49.018Z,7.81
2019-03-16T04:58:16.070Z,7.82
2019-03-16T05:00:43.106Z,7.81
2019-03-16T05:03:10.163Z,7.80
2019-03-16T05:05:37.513Z,7.79
2019-03-16T05:08:04.870Z,7.79
2019-03-16T05:10:32.225Z,7.79
2019-03-16T05:12:59.278Z,7.78
2019-03-16T05:15:27.386Z,7.75
2019-03-16T05:17:54.440Z,7.76
2019-03-16T05:20:21.749Z,7.76
2019-03-16T05:22:48.809Z,7.75
2019-03-16T05:25:16.147Z,7.73
2019-03-16T05:27:43.522Z,7.73
2019-03-16T05:30:10.559Z,7.71
2019-03-16T05:32:37.617Z,7.72
2019-03-16T05:35:04.975Z,7.72
2019-03-16T05:37:32.333Z,7.72
2019-03-16T05:39:59.616Z,7.71
2019-03-16T05:42:27.025Z,7.70
2019-03-16T05:44:54.477Z,7.72
2019-03-16T05:47:21.850Z,7.70
2019-03-16T05:49:48.901Z,7.71
2019-03-16T05:52:15.933Z,7.72
2019-03-16T05:54:42.990Z,7.71
2019-03-16T05:57:10.274Z,7.75
2019-03-16T05:59:37.327Z,7.75
2019-03-16T06:02:04.654Z,7.75
2019-03-16T06:04:31.726Z,7.72
2019-03-16T06:06:58.748Z,7.71
2019-03-16T06:09:25.794Z,7.71
2019-03-16T06:11:52.829Z,7.73
2019-03-16T06:14:20.185Z,7.72
2019-03-16T06:16:47.466Z,7.71
2019-03-16T06:19:15.491Z,7.73
2019-03-16T06:21:42.859Z,7.75
2019-03-16T06:24:10.154Z,7.74
2019-03-16T06:26:37.195Z,7.73
2019-03-16T06:29:04.246Z,7.73
2019-03-16T06:31:31.285Z,7.72
2019-03-16T06:33:58.616Z,7.74
2019-03-16T06:36:25.984Z,7.73
2019-03-16T06:38:53.044Z,7.72
2019-03-16T06:41:20.328Z,7.73
2019-03-16T06:43:47.372Z,7.73
2019-03-16T06:46:14.482Z,7.74
2019-03-16T06:48:41.836Z,7.72
2019-03-16T06:51:08.872Z,7.72
2019-03-16T06:53:35.922Z,7.70
2019-03-16T06:56:03.127Z,7.69
2019-03-16T06:58:30.447Z,7.69
2019-03-16T07:01:13.671Z,7.69
2019-03-16T07:09:22.176Z,7.70
2019-03-16T07:11:49.219Z,7.72
2019-03-16T07:14:20.700Z,7.69
2019-03-16T07:17:01.052Z,7.69
2019-03-16T07:19:16.756Z,7.69
2019-03-16T07:21:44.096Z,7.67
2019-03-16T07:24:11.149Z,7.69
2019-03-16T07:26:38.439Z,7.70
2019-03-16T07:29:05.754Z,7.71
2019-03-16T07:31:51.060Z,7.72
2019-03-16T07:34:18.099Z,7.76
2019-03-16T07:36:45.129Z,7.73
2019-03-16T07:39:12.173Z,7.74
2019-03-16T07:41:39.472Z,7.78
2019-03-16T07:44:06.885Z,7.82
2019-03-16T07:46:34.242Z,7.86
2019-03-16T07:49:01.542Z,7.83
2019-03-16T07:51:28.573Z,7.79
2019-03-16T07:53:55.877Z,7.81
2019-03-16T07:56:23.277Z,7.81
2019-03-16T07:58:50.328Z,7.77
2019-03-16T08:01:17.671Z,7.72
2019-03-16T08:03:45.015Z,7.75
2019-03-16T08:06:12.043Z,7.71
2019-03-16T08:08:39.417Z,7.70
2019-03-16T08:11:06.778Z,7.71
2019-03-16T08:13:34.116Z,7.72
2019-03-16T08:16:01.477Z,7.72
2019-03-16T08:18:28.511Z,7.72
2019-03-16T08:20:55.555Z,7.74
2019-03-16T08:23:22.943Z,7.77
2019-03-16T08:25:49.990Z,7.74
2019-03-16T08:28:17.098Z,7.71
2019-03-16T08:30:44.390Z,7.73
2019-03-16T08:33:11.422Z,7.69
2019-03-16T08:35:38.720Z,7.64
2019-03-16T08:38:06.058Z,7.63
2019-03-16T08:40:33.383Z,7.62
2019-03-16T08:43:00.419Z,7.63
2019-03-16T08:45:27.466Z,7.73
2019-03-16T08:47:54.836Z,7.80
2019-03-16T08:50:21.883Z,7.84
2019-03-16T08:52:49.245Z,7.86
2019-03-16T08:55:16.290Z,7.86
2019-03-16T08:57:43.324Z,7.82
2019-03-16T09:00:10.611Z,7.82
2019-03-16T09:02:37.943Z,7.86
2019-03-16T09:05:05.961Z,7.86
2019-03-16T09:07:41.668Z,7.86
2019-03-16T09:10:08.718Z,7.81
2019-03-16T09:12:36.068Z,7.83
2019-03-16T09:15:03.437Z,7.77
2019-03-16T09:17:30.464Z,7.87
2019-03-16T09:19:57.829Z,8.02
2019-03-16T09:22:24.879Z,8.00
2019-03-16T09:24:52.190Z,8.03
2019-03-16T09:27:30.569Z,8.16
2019-03-16T09:29:48.330Z,8.19
2019-03-16T09:32:15.649Z,8.18
2019-03-16T09:34:43.037Z,8.22
2019-03-16T09:37:10.028Z,8.25
2019-03-16T09:39:37.063Z,8.30
2019-03-16T09:42:04.352Z,8.25
2019-03-16T09:44:31.384Z,8.20
2019-03-16T09:46:58.437Z,8.21
2019-03-16T09:49:25.816Z,8.16
2019-03-16T09:51:52.844Z,8.36
2019-03-16T09:54:19.882Z,8.71
2019-03-16T09:57:00.212Z,8.81
2019-03-16T09:59:15.905Z,8.70
2019-03-16T10:01:43.294Z,8.80
2019-03-16T10:04:10.630Z,8.92
2019-03-16T10:06:37.679Z,9.03
2019-03-16T10:09:04.715Z,9.20
2019-03-16T10:11:32.097Z,9.18
2019-03-16T10:14:00.100Z,9.15
2019-03-16T10:16:27.525Z,9.26
2019-03-16T10:18:54.556Z,9.25
2019-03-16T10:21:21.615Z,9.14
2019-03-16T10:23:48.638Z,9.01
2019-03-16T10:26:15.685Z,8.89
2019-03-16T10:28:43.834Z,8.78
2019-03-16T10:31:11.045Z,8.71
2019-03-16T10:33:38.147Z,8.77
2019-03-16T10:36:05.529Z,8.72
2019-03-16T10:38:32.577Z,8.58
2019-03-16T10:41:05.153Z,8.47
2019-03-16T10:43:32.207Z,8.43
2019-03-16T10:45:59.243Z,8.33
2019-03-16T10:48:26.626Z,8.18
2019-03-16T10:50:53.657Z,8.14
2019-03-16T10:53:20.707Z,8.14
2019-03-16T10:55:47.739Z,8.04
2019-03-16T10:58:14.782Z,7.93
2019-03-16T11:00:42.154Z,7.96
2019-03-16T11:03:09.213Z,8.06
2019-03-16T11:05:36.572Z,8.16
2019-03-16T11:08:03.923Z,8.17
2019-03-16T11:10:30.978Z,8.25
2019-03-16T11:12:58.023Z,8.20
2019-03-16T11:15:25.304Z,8.17
2019-03-16T11:17:52.351Z,8.16
2019-03-16T11:20:19.662Z,8.27
2019-03-16T11:22:46.999Z,8.37
2019-03-16T11:25:14.375Z,8.47
2019-03-16T11:27:41.659Z,8.86
2019-03-16T11:30:08.984Z,8.82
2019-03-16T11:32:36.436Z,8.83
2019-03-16T11:35:03.471Z,8.75
2019-03-16T11:37:30.852Z,8.80
2019-03-16T11:39:58.194Z,9.31
2019-03-16T11:42:25.249Z,9.85
2019-03-16T11:44:52.534Z,10.81
2019-03-16T11:47:19.853Z,10.79
2019-03-16T11:49:46.887Z,12.08
2019-03-16T11:52:13.937Z,12.50
2019-03-16T11:54:41.301Z,13.81
2019-03-16T11:57:08.351Z,15.92
2019-03-16T11:59:35.386Z,14.93
2019-03-16T12:02:05.645Z,13.81
2019-03-16T12:04:31.866Z,17.31
2019-03-16T12:06:59.219Z,17.05
2019-03-16T12:09:26.558Z,15.47
2019-03-16T12:11:53.917Z,15.02
2019-03-16T12:14:21.279Z,14.45
2019-03-16T12:16:48.353Z,14.19
2019-03-16T12:19:15.669Z,13.90
2019-03-16T12:21:42.707Z,13.06
2019-03-16T12:24:09.760Z,12.51
2019-03-16T12:26:36.798Z,12.00
2019-03-16T12:29:03.846Z,11.56
2019-03-16T12:31:31.218Z,11.51
2019-03-16T12:33:58.269Z,11.53
2019-03-16T12:36:25.302Z,11.36
2019-03-16T12:38:52.350Z,11.74
2019-03-16T12:41:19.389Z,12.42
2019-03-16T12:43:46.789Z,12.31
2019-03-16T12:46:13.828Z,12.05
2019-03-16T12:48:40.883Z,11.87
2019-03-16T12:51:07.922Z,11.92
2019-03-16T12:53:35.265Z,12.74
2019-03-16T12:56:02.619Z,13.00
2019-03-16T12:58:29.673Z,12.96
2019-03-16T13:03:46.204Z,12.07
2019-03-16T13:06:14.310Z,13.29
2019-03-16T13:08:41.762Z,13.58
2019-03-16T13:11:08.816Z,13.39
2019-03-16T13:13:37.268Z,13.18
2019-03-16T13:16:04.296Z,15.36
2019-03-16T13:18:31.754Z,19.21
2019-03-16T13:20:58.786Z,18.16
2019-03-16T13:23:26.179Z,15.87
2019-03-16T13:25:53.214Z,14.83
2019-03-16T13:28:20.278Z,13.15
2019-03-16T13:30:47.611Z,12.31
2019-03-16T13:33:15.623Z,12.13
2019-03-16T13:35:42.657Z,12.25
2019-03-16T13:38:10.002Z,12.53
2019-03-16T13:40:37.335Z,12.95
2019-03-16T13:43:04.382Z,12.83
2019-03-16T13:45:31.416Z,12.70
2019-03-16T13:47:58.448Z,12.57
2019-03-16T13:50:25.834Z,12.58
2019-03-16T13:52:53.394Z,13.11
2019-03-16T13:55:20.778Z,13.87
2019-03-16T13:57:47.845Z,14.13
2019-03-16T14:00:15.559Z,14.52
2019-03-16T14:02:43.958Z,14.50
2019-03-16T14:05:11.014Z,14.01
2019-03-16T14:07:38.650Z,13.76
2019-03-16T14:10:06.004Z,13.53
2019-03-16T14:12:33.377Z,13.71
2019-03-16T14:15:00.725Z,13.74
2019-03-16T14:17:28.020Z,13.68
2019-03-16T14:19:55.439Z,13.53
2019-03-16T14:22:22.487Z,13.51
2019-03-16T14:24:49.539Z,13.76
2019-03-16T14:27:16.879Z,13.93
2019-03-16T14:29:45.404Z,13.79
2019-03-16T14:32:12.978Z,13.49
2019-03-16T14:34:40.586Z,13.45
2019-03-16T14:37:07.959Z,13.34
2019-03-16T14:39:35.356Z,13.01
2019-03-16T14:42:02.957Z,12.84
2019-03-16T14:44:30.008Z,12.94
2019-03-16T14:46:57.354Z,13.14
2019-03-16T14:49:24.795Z,13.17
2019-03-16T14:51:51.816Z,13.07
2019-03-16T14:54:21.147Z,12.84
2019-03-16T14:56:48.456Z,12.79
2019-03-16T14:59:15.730Z,13.44
2019-03-16T15:01:42.984Z,13.83
2019-03-16T15:06:54.483Z,13.69
2019-03-16T15:09:25.723Z,13.30
2019-03-16T15:12:03.320Z,13.02
2019-03-16T15:17:03.958Z,12.77
2019-03-16T15:19:35.365Z,12.65
2019-03-16T15:22:03.569Z,12.63
2019-03-16T15:24:32.785Z,12.45
2019-03-16T15:27:01.997Z,12.17
2019-03-16T15:29:32.822Z,12.19
2019-03-16T15:32:12.440Z,12.04
2019-03-16T15:42:34.441Z,10.82
2019-03-16T15:47:53.486Z,10.26
2019-03-16T15:50:25.651Z,10.17
2019-03-16T15:52:56.691Z,10.11
2019-03-16T15:55:24.045Z,10.05
2019-03-16T15:57:52.530Z,10.04
2019-03-16T16:00:24.849Z,10.02
2019-03-16T16:05:45.731Z,9.86
2019-03-16T16:08:21.514Z,9.74
2019-03-16T16:11:00.358Z,9.70
2019-03-16T16:13:33.732Z,9.62
2019-03-16T16:16:06.177Z,9.56
2019-03-16T16:18:35.390Z,9.50
2019-03-16T16:21:02.726Z,9.42
2019-03-16T16:23:30.489Z,9.31
2019-03-16T16:28:34.419Z,9.15
2019-03-16T16:36:20.564Z,8.91
2019-03-16T16:43:53.818Z,8.87
2019-03-16T16:49:04.100Z,8.69
2019-03-16T16:51:36.827Z,8.65
2019-03-16T16:54:21.210Z,8.61
2019-03-16T16:59:24.645Z,8.48
2019-03-16T17:01:53.075Z,8.36
2019-03-16T17:04:27.396Z,8.31
2019-03-16T17:09:33.270Z,8.19
2019-03-16T17:12:00.463Z,8.12
2019-03-16T17:14:28.905Z,7.99
2019-03-16T17:17:00.095Z,8.02
2019-03-16T17:19:27.332Z,7.85
2019-03-16T17:21:54.382Z,7.66
2019-03-16T17:24:27.367Z,7.55
2019-03-16T17:29:33.716Z,7.25
2019-03-16T17:32:00.917Z,7.18
2019-03-16T17:34:28.823Z,7.09
2019-03-16T17:36:59.416Z,7.00
2019-03-16T17:39:28.600Z,6.91
2019-03-16T17:41:57.811Z,6.83
2019-03-16T17:44:38.284Z,6.71
2019-03-16T17:54:52.283Z,6.25
2019-03-16T17:57:20.665Z,6.18
2019-03-16T17:59:48.077Z,6.15
2019-03-16T18:02:20.011Z,6.02
2019-03-16T18:04:48.239Z,5.96
2019-03-16T18:07:16.418Z,5.92
2019-03-16T18:09:50.408Z,5.82
2019-03-16T18:12:21.687Z,5.79
2019-03-16T18:14:54.954Z,5.73
2019-03-16T18:17:24.010Z,5.71
2019-03-16T18:19:51.309Z,5.62
2019-03-16T18:22:18.363Z,5.51
2019-03-16T18:24:52.349Z,5.51
2019-03-16T18:29:58.737Z,5.44
2019-03-16T18:32:25.916Z,5.39
2019-03-16T18:35:01.237Z,5.36
2019-03-16T18:37:34.598Z,5.24
2019-03-16T18:40:11.203Z,5.18
2019-03-16T18:42:39.422Z,5.06
2019-03-16T18:45:18.713Z,4.96
2019-03-16T18:47:45.986Z,4.86
2019-03-16T18:50:21.223Z,4.86
2019-03-16T18:55:22.285Z,4.90
2019-03-16T19:00:28.257Z,5.10
2019-03-16T19:03:01.248Z,5.19
2019-03-16T19:05:29.697Z,5.22
2019-03-16T19:07:56.878Z,5.32
2019-03-16T19:10:29.848Z,5.29
2019-03-16T19:12:58.043Z,5.28
2019-03-16T19:15:25.959Z,5.33
2019-03-16T19:20:27.471Z,5.53
2019-03-16T19:22:54.572Z,5.53
2019-03-16T19:25:29.758Z,5.65
2019-03-16T19:28:01.525Z,5.81
2019-03-16T19:30:28.752Z,5.79
2019-03-16T19:32:59.098Z,5.86
2019-03-16T19:35:41.561Z,5.78
2019-03-16T19:38:08.755Z,5.69
2019-03-16T19:43:29.592Z,5.60
2019-03-16T19:46:00.603Z,5.58
2019-03-16T19:48:29.727Z,5.57
2019-03-16T19:50:58.258Z,5.76
2019-03-16T19:53:30.425Z,5.76
2019-03-16T19:55:59.653Z,5.69
2019-03-16T19:58:27.851Z,5.82
2019-03-16T20:00:54.883Z,5.83
2019-03-16T20:03:23.324Z,5.85
2019-03-16T20:05:51.423Z,5.83
2019-03-16T20:08:24.327Z,5.81
2019-03-16T20:11:06.363Z,5.75
2019-03-16T20:13:28.767Z,5.73
2019-03-16T20:18:46.493Z,5.74
2019-03-16T20:21:13.482Z,5.78
2019-03-16T20:23:40.526Z,5.80
2019-03-16T20:26:19.745Z,5.77
2019-03-16T20:31:46.783Z,5.68
2019-03-16T20:34:15.247Z,5.52
2019-03-16T20:36:42.428Z,5.39
2019-03-16T20:39:10.880Z,5.50
2019-03-16T20:41:40.104Z,5.54
2019-03-16T20:49:19.144Z,5.77
2019-03-16T20:54:51.898Z,6.28
2019-03-16T20:57:25.268Z,6.63
2019-03-16T20:59:53.464Z,6.82
2019-03-16T21:02:27.807Z,6.96
2019-03-16T21:04:59.445Z,7.06
2019-03-16T21:07:34.966Z,6.95
2019-03-16T21:10:02.033Z,6.93
2019-03-16T21:12:41.556Z,6.94
2019-03-16T21:15:13.467Z,6.88
2019-03-16T21:17:42.769Z,6.98
2019-03-16T21:20:11.176Z,7.05
2019-03-16T21:22:51.764Z,6.90
2019-03-16T21:25:22.392Z,6.74
2019-03-16T21:28:01.417Z,6.63
2019-03-16T21:30:28.952Z,6.61
2019-03-16T21:33:06.752Z,6.69
2019-03-16T21:35:39.723Z,6.66
2019-03-16T21:38:07.944Z,6.51
2019-03-16T21:40:36.501Z,6.62
2019-03-16T21:45:57.794Z,6.61
2019-03-16T21:48:26.046Z,6.76
2019-03-16T21:50:54.228Z,6.74
2019-03-16T21:53:22.122Z,6.79
2019-03-16T21:55:50.381Z,6.80
2019-03-16T21:58:18.528Z,6.88
2019-03-16T22:00:45.961Z,6.91
2019-03-16T22:03:26.041Z,6.93
2019-03-16T22:05:55.258Z,7.10
2019-03-16T22:08:23.412Z,7.05
2019-03-16T22:13:27.105Z,7.07
2019-03-16T22:18:26.881Z,7.08
2019-03-16T22:20:54.390Z,7.14
2019-03-16T22:23:36.733Z,7.15
2019-03-16T22:26:04.915Z,7.12
2019-03-16T22:28:33.081Z,7.19
2019-03-16T22:31:00.119Z,7.23
2019-03-16T22:33:34.704Z,7.22
2019-03-16T22:38:37.478Z,7.52
2019-03-16T22:43:39.809Z,7.89
2019-03-16T22:46:12.183Z,7.83
2019-03-16T22:48:57.486Z,7.95
2019-03-16T22:53:59.791Z,7.88
2019-03-16T22:59:18.625Z,7.78
2019-03-16T23:01:46.841Z,7.79
2019-03-16T23:04:24.219Z,7.77
2019-03-16T23:06:51.520Z,7.79
2019-03-16T23:09:25.913Z,7.94
2019-03-16T23:11:54.085Z,8.00
2019-03-16T23:14:25.094Z,8.04
2019-03-16T23:16:56.267Z,8.17
2019-03-16T23:19:31.949Z,8.13
2019-03-16T23:22:00.196Z,8.26
2019-03-16T23:24:28.350Z,8.30
2019-03-16T23:29:28.527Z,8.20
2019-03-16T23:31:55.564Z,8.28
2019-03-16T23:34:24.830Z,8.36
2019-03-16T23:39:26.528Z,8.30
2019-03-16T23:41:56.850Z,8.47
2019-03-16T23:44:29.180Z,8.39
2019-03-16T23:46:57.665Z,8.36
2019-03-16T23:49:25.426Z,8.42
2019-03-16T23:51:52.472Z,8.38
2019-03-16T23:54:19.537Z,8.18
2019-03-16T23:56:46.817Z,8.19
2019-03-16T23:59:13.847Z,8.20
